createdAt,value
2019-03-23T00:02:08.984Z,76.02
2019-03-23T00:04:39.999Z,76.28
2019-03-23T00:07:11.088Z,76.27
2019-03-23T00:09:42.088Z,76.18
2019-03-23T00:12:13.068Z,76.31
2019-03-23T00:14:44.162Z,76.23
2019-03-23T00:17:15.202Z,76.35
2019-03-23T00:19:46.555Z,76.58
2019-03-23T00:22:17.565Z,76.70
2019-03-23T00:24:48.899Z,76.61
2019-03-23T00:27:19.890Z,76.64
2019-03-23T00:29:50.876Z,76.84
2019-03-23T00:32:22.112Z,76.89
2019-03-23T00:34:53.101Z,77.10
2019-03-23T00:37:24.557Z,76.92
2019-03-23T00:39:56.042Z,76.97
2019-03-23T00:42:27.036Z,76.92
2019-03-23T00:44:58.378Z,77.02
2019-03-23T00:47:29.407Z,77.13
2019-03-23T00:50:00.395Z,77.29
2019-03-23T00:52:31.385Z,77.33
2019-03-23T00:55:02.418Z,77.52
2019-03-23T00:57:33.667Z,77.55
2019-03-23T01:00:04.779Z,77.52
2019-03-23T01:02:35.969Z,77.81
2019-03-23T01:05:07.525Z,77.92
2019-03-23T01:07:38.527Z,78.19
2019-03-23T01:10:11.221Z,78.17
2019-03-23T01:12:43.027Z,78.03
2019-03-23T01:15:14.429Z,78.94
2019-03-23T01:17:45.435Z,78.73
2019-03-23T01:20:16.551Z,78.39
2019-03-23T01:22:47.544Z,77.91
2019-03-23T01:25:20.810Z,77.44
2019-03-23T01:27:51.279Z,77.34
2019-03-23T01:30:22.271Z,76.89
2019-03-23T01:32:53.307Z,76.38
2019-03-23T01:35:24.671Z,76.14
2019-03-23T01:37:55.663Z,76.18
2019-03-23T01:40:26.673Z,76.18
2019-03-23T01:42:57.660Z,75.65
2019-03-23T01:45:29.057Z,75.95
2019-03-23T01:48:00.055Z,76.15
2019-03-23T01:50:31.045Z,76.36
2019-03-23T01:53:02.083Z,76.40
2019-03-23T01:55:33.076Z,76.64
2019-03-23T01:58:04.077Z,77.00
2019-03-23T02:00:35.531Z,77.36
2019-03-23T02:03:06.516Z,77.43
2019-03-23T02:05:37.915Z,77.53
2019-03-23T02:08:08.947Z,77.34
2019-03-23T02:10:41.866Z,77.80
2019-03-23T02:13:13.119Z,77.94
2019-03-23T02:15:44.238Z,78.59
2019-03-23T02:18:15.683Z,78.61
2019-03-23T02:20:46.669Z,78.59
2019-03-23T02:23:17.982Z,78.41
2019-03-23T02:25:48.971Z,78.53
2019-03-23T02:28:20.418Z,78.63
2019-03-23T02:30:51.405Z,78.31
2019-03-23T02:33:22.420Z,78.79
2019-03-23T02:35:54.406Z,78.65
2019-03-23T02:38:25.734Z,78.86
2019-03-23T02:40:57.031Z,79.67
2019-03-23T02:43:28.141Z,79.94
2019-03-23T02:45:59.527Z,79.64
2019-03-23T02:48:30.560Z,79.77
2019-03-23T02:51:02.332Z,80.11
2019-03-23T02:53:33.317Z,79.80
2019-03-23T02:56:04.420Z,79.93
2019-03-23T02:58:35.834Z,79.96
2019-03-23T03:01:06.816Z,79.85
2019-03-23T03:03:37.941Z,79.83
2019-03-23T03:06:09.317Z,79.83
2019-03-23T03:08:40.321Z,80.94
2019-03-23T03:11:11.744Z,80.69
2019-03-23T03:13:43.142Z,80.89
2019-03-23T03:16:14.186Z,80.74
2019-03-23T03:18:45.207Z,80.50
2019-03-23T03:21:16.599Z,80.89
2019-03-23T03:23:48.360Z,80.56
2019-03-23T03:26:19.359Z,80.87
2019-03-23T03:28:50.479Z,80.65
2019-03-23T03:31:21.438Z,80.94
2019-03-23T03:33:52.417Z,80.63
2019-03-23T03:36:23.449Z,80.84
2019-03-23T03:38:54.432Z,80.73
2019-03-23T03:41:25.767Z,80.97
2019-03-23T03:43:56.742Z,81.01
2019-03-23T03:46:28.160Z,81.20
2019-03-23T03:49:11.751Z,81.48
2019-03-23T03:51:31.829Z,81.68
2019-03-23T03:54:02.837Z,81.43
2019-03-23T03:56:33.856Z,81.64
2019-03-23T03:59:04.833Z,81.21
2019-03-23T04:01:35.815Z,81.52
2019-03-23T04:04:07.140Z,81.45
2019-03-23T04:06:38.118Z,81.81
2019-03-23T04:09:09.105Z,82.13
2019-03-23T04:11:40.155Z,81.71
2019-03-23T04:14:11.142Z,81.87
2019-03-23T04:16:42.151Z,81.80
2019-03-23T04:19:13.126Z,81.81
2019-03-23T04:21:44.148Z,81.91
2019-03-23T04:24:15.128Z,82.21
2019-03-23T04:26:46.194Z,82.39
2019-03-23T04:29:17.300Z,81.83
2019-03-23T04:31:48.281Z,82.32
2019-03-23T04:34:19.304Z,82.95
2019-03-23T04:36:50.288Z,83.21
2019-03-23T04:39:21.268Z,83.46
2019-03-23T04:41:52.300Z,83.16
2019-03-23T04:44:23.278Z,82.75
2019-03-23T04:46:54.255Z,82.58
2019-03-23T04:49:25.283Z,82.70
2019-03-23T04:51:56.274Z,83.21
2019-03-23T04:54:27.253Z,82.85
2019-03-23T04:56:58.277Z,83.26
2019-03-23T04:59:29.253Z,83.27
2019-03-23T05:02:00.288Z,82.32
2019-03-23T05:04:31.642Z,81.89
2019-03-23T05:07:02.619Z,81.63
2019-03-23T05:09:33.642Z,81.17
2019-03-23T05:12:04.762Z,81.15
2019-03-23T05:14:35.738Z,81.07
2019-03-23T05:17:06.783Z,80.85
2019-03-23T05:19:37.766Z,81.29
2019-03-23T05:22:09.051Z,81.44
2019-03-23T05:24:40.076Z,82.11
2019-03-23T05:27:11.051Z,82.49
2019-03-23T05:29:42.032Z,82.62
2019-03-23T05:32:13.075Z,82.64
2019-03-23T05:34:44.218Z,83.09
2019-03-23T05:37:15.927Z,82.71
2019-03-23T05:39:47.306Z,83.09
2019-03-23T05:42:18.627Z,82.81
2019-03-23T05:44:49.640Z,84.52
2019-03-23T05:47:20.672Z,85.23
2019-03-23T05:49:52.068Z,85.32
2019-03-23T05:52:23.326Z,85.30
2019-03-23T05:54:54.370Z,85.07
2019-03-23T05:57:25.710Z,85.19
2019-03-23T05:59:56.737Z,85.69
2019-03-23T06:02:27.719Z,85.91
2019-03-23T06:04:58.708Z,86.38
2019-03-23T06:07:30.090Z,87.01
2019-03-23T06:10:01.067Z,86.90
2019-03-23T06:12:32.088Z,86.67
2019-03-23T06:15:04.352Z,87.36
2019-03-23T06:17:36.436Z,87.84
2019-03-23T06:20:08.454Z,87.93
2019-03-23T06:22:39.491Z,88.08
2019-03-23T06:25:10.679Z,88.57
2019-03-23T06:27:41.656Z,88.49
2019-03-23T06:30:12.904Z,89.14
2019-03-23T06:32:44.224Z,89.64
2019-03-23T06:35:15.671Z,90.06
2019-03-23T06:37:46.720Z,89.93
2019-03-23T06:40:17.702Z,89.71
2019-03-23T06:42:59.160Z,90.25
2019-03-23T06:45:21.580Z,89.68
2019-03-23T06:47:52.563Z,89.81
2019-03-23T06:50:23.548Z,90.45
2019-03-23T06:52:54.636Z,90.43
2019-03-23T06:55:25.960Z,90.63
2019-03-23T06:57:57.624Z,91.31
2019-03-23T07:00:28.659Z,91.31
2019-03-23T07:02:59.651Z,91.27
2019-03-23T07:05:30.739Z,91.38
2019-03-23T07:08:02.098Z,90.53
2019-03-23T07:10:33.089Z,90.68
2019-03-23T07:13:04.064Z,90.10
2019-03-23T07:15:35.127Z,90.43
2019-03-23T07:18:06.115Z,90.23
2019-03-23T07:20:37.100Z,91.09
2019-03-23T07:23:08.130Z,90.95
2019-03-23T07:25:39.817Z,91.28
2019-03-23T07:28:10.804Z,91.17
2019-03-23T07:30:41.969Z,91.05
2019-03-23T07:33:12.922Z,90.69
2019-03-23T07:35:44.197Z,90.56
2019-03-23T07:38:15.581Z,90.48
2019-03-23T07:40:46.667Z,90.33
2019-03-23T07:43:18.089Z,90.23
2019-03-23T07:45:49.266Z,89.77
2019-03-23T07:48:20.922Z,89.16
2019-03-23T07:50:51.905Z,88.44
2019-03-23T07:53:22.938Z,88.15
2019-03-23T07:55:53.934Z,87.61
2019-03-23T07:58:24.924Z,88.14
2019-03-23T08:00:56.296Z,87.40
2019-03-23T08:03:27.317Z,86.40
2019-03-23T08:05:58.662Z,86.16
2019-03-23T08:08:29.948Z,85.89
2019-03-23T08:11:00.918Z,86.24
2019-03-23T08:13:32.050Z,85.99
2019-03-23T08:16:03.569Z,86.24
2019-03-23T08:18:34.910Z,85.75
2019-03-23T08:21:05.923Z,84.89
2019-03-23T08:23:37.069Z,84.88
2019-03-23T08:26:08.446Z,84.81
2019-03-23T08:28:39.433Z,84.99
2019-03-23T08:31:10.399Z,84.54
2019-03-23T08:33:41.431Z,83.87
2019-03-23T08:36:13.313Z,83.19
2019-03-23T08:38:44.305Z,83.65
2019-03-23T08:41:15.328Z,83.26
2019-03-23T08:43:46.666Z,84.11
2019-03-23T08:46:18.115Z,83.91
2019-03-23T08:48:49.119Z,83.56
2019-03-23T08:51:20.102Z,84.00
2019-03-23T08:53:51.139Z,83.24
2019-03-23T08:56:22.570Z,83.38
2019-03-23T08:58:55.462Z,83.38
2019-03-23T09:01:27.153Z,82.73
2019-03-23T09:03:58.158Z,83.35
2019-03-23T09:06:29.148Z,83.10
2019-03-23T09:09:00.183Z,82.51
2019-03-23T09:11:31.538Z,81.97
2019-03-23T09:14:02.524Z,82.35
2019-03-23T09:16:33.575Z,82.15
2019-03-23T09:19:04.974Z,81.60
2019-03-23T09:21:35.953Z,81.76
2019-03-23T09:24:07.042Z,81.48
2019-03-23T09:26:38.016Z,81.48
2019-03-23T09:29:08.994Z,81.31
2019-03-23T09:31:40.017Z,80.85
2019-03-23T09:34:11.490Z,80.13
2019-03-23T09:36:42.755Z,80.79
2019-03-23T09:39:13.734Z,79.36
2019-03-23T09:41:44.745Z,79.64
2019-03-23T09:44:15.717Z,79.88
2019-03-23T09:46:47.129Z,79.70
2019-03-23T09:49:18.270Z,79.76
2019-03-23T09:51:49.251Z,79.66
2019-03-23T09:54:20.291Z,80.40
2019-03-23T09:56:51.270Z,79.47
2019-03-23T09:59:22.247Z,79.78
2019-03-23T10:01:53.282Z,79.73
2019-03-23T10:04:24.274Z,79.53
2019-03-23T10:06:55.258Z,79.63
2019-03-23T10:09:26.283Z,79.45
2019-03-23T10:11:59.126Z,79.28
2019-03-23T10:14:29.949Z,79.56
2019-03-23T10:17:01.282Z,79.14
2019-03-23T10:19:32.682Z,79.02
2019-03-23T10:22:03.832Z,79.69
2019-03-23T10:24:34.837Z,80.32
2019-03-23T10:27:05.919Z,79.54
2019-03-23T10:29:37.266Z,78.87
2019-03-23T10:32:08.621Z,78.22
2019-03-23T10:34:39.648Z,78.48
2019-03-23T10:37:11.341Z,79.09
2019-03-23T10:39:42.299Z,79.68
2019-03-23T10:42:16.125Z,78.01
2019-03-23T10:44:46.694Z,77.03
2019-03-23T10:47:17.714Z,77.39
2019-03-23T10:49:48.728Z,77.26
2019-03-23T10:52:19.750Z,77.27
2019-03-23T10:54:50.755Z,77.31
2019-03-23T10:57:21.735Z,77.98
2019-03-23T10:59:52.748Z,77.66
2019-03-23T11:02:23.739Z,78.30
2019-03-23T11:04:54.771Z,78.10
2019-03-23T11:07:25.753Z,77.84
2019-03-23T11:09:56.738Z,77.73
2019-03-23T11:12:27.774Z,76.96
2019-03-23T11:14:58.787Z,75.92
2019-03-23T11:17:29.828Z,76.54
2019-03-23T11:20:00.868Z,77.16
2019-03-23T11:22:31.847Z,76.68
2019-03-23T11:25:02.834Z,76.23
2019-03-23T11:27:34.203Z,77.05
2019-03-23T11:30:06.089Z,76.87
2019-03-23T11:32:37.454Z,76.09
2019-03-23T11:35:08.767Z,75.96
2019-03-23T11:37:40.025Z,75.88
2019-03-23T11:40:11.362Z,76.45
2019-03-23T11:42:49.976Z,76.68
2019-03-23T11:45:15.649Z,76.33
2019-03-23T11:47:46.670Z,77.07
2019-03-23T11:50:17.669Z,76.63
2019-03-23T11:52:48.851Z,77.04
2019-03-23T11:55:19.996Z,77.76
2019-03-23T11:57:50.984Z,78.04
2019-03-23T12:00:22.287Z,77.45
2019-03-23T12:02:53.602Z,77.30
2019-03-23T12:05:24.682Z,77.40
2019-03-23T12:07:56.061Z,76.99
2019-03-23T12:10:27.098Z,77.62
2019-03-23T12:12:58.154Z,77.49
2019-03-23T12:15:30.930Z,77.09
2019-03-23T12:18:02.711Z,76.66
2019-03-23T12:20:34.218Z,76.07
2019-03-23T12:23:05.468Z,76.31
2019-03-23T12:25:36.514Z,77.03
2019-03-23T12:28:07.553Z,76.15
2019-03-23T12:30:38.530Z,76.28
2019-03-23T12:33:09.672Z,76.03
2019-03-23T12:35:40.670Z,75.58
2019-03-23T12:38:11.667Z,75.58
2019-03-23T12:40:42.706Z,76.42
2019-03-23T12:43:13.696Z,76.20
2019-03-23T12:45:44.974Z,75.96
2019-03-23T12:48:16.010Z,75.46
2019-03-23T12:50:46.992Z,75.06
2019-03-23T12:53:17.982Z,75.44
2019-03-23T12:55:49.779Z,74.35
2019-03-23T12:58:22.814Z,73.69
2019-03-23T13:00:53.507Z,74.02
2019-03-23T13:03:24.882Z,74.33
2019-03-23T13:05:55.858Z,74.93
2019-03-23T13:08:26.901Z,74.63
2019-03-23T13:10:57.897Z,74.22
2019-03-23T13:13:29.292Z,73.93
2019-03-23T13:16:00.736Z,74.35
2019-03-23T13:18:32.039Z,73.81
2019-03-23T13:21:03.306Z,73.65
2019-03-23T13:23:34.836Z,73.21
2019-03-23T13:26:05.831Z,73.44
2019-03-23T13:28:36.833Z,72.64
2019-03-23T13:31:08.357Z,72.25
2019-03-23T13:33:41.375Z,71.79
2019-03-23T13:36:14.575Z,71.58
2019-03-23T13:38:45.991Z,71.77
2019-03-23T13:41:16.987Z,71.15
2019-03-23T13:43:48.040Z,70.28
2019-03-23T13:46:19.027Z,69.35
2019-03-23T13:48:50.268Z,68.25
2019-03-23T13:51:21.331Z,67.97
2019-03-23T13:53:52.796Z,68.30
2019-03-23T13:56:24.117Z,68.87
2019-03-23T13:58:55.650Z,67.34
2019-03-23T14:01:26.822Z,67.62
2019-03-23T14:03:57.862Z,67.43
2019-03-23T14:06:28.909Z,68.00
2019-03-23T14:09:00.091Z,67.53
2019-03-23T14:11:32.191Z,67.86
2019-03-23T14:14:03.900Z,66.51
2019-03-23T14:16:34.891Z,68.12
2019-03-23T14:19:06.068Z,68.33
2019-03-23T14:21:37.379Z,68.27
2019-03-23T14:24:09.597Z,68.23
2019-03-23T14:26:40.697Z,67.72
2019-03-23T14:29:11.846Z,67.65
2019-03-23T14:31:43.335Z,67.53
2019-03-23T14:34:14.384Z,67.73
2019-03-23T14:36:45.424Z,69.00
2019-03-23T14:39:16.409Z,67.82
2019-03-23T14:41:47.441Z,68.09
2019-03-23T14:44:18.479Z,67.96
2019-03-23T14:46:50.761Z,67.99
2019-03-23T14:49:21.971Z,67.18
2019-03-23T14:51:53.412Z,66.88
2019-03-23T14:54:26.301Z,66.81
2019-03-23T14:56:57.329Z,67.75
2019-03-23T14:59:28.502Z,68.02
2019-03-23T15:01:59.913Z,68.70
2019-03-23T15:04:31.003Z,69.53
2019-03-23T15:07:02.034Z,68.62
2019-03-23T15:09:33.826Z,69.35
2019-03-23T15:12:14.550Z,68.98
2019-03-23T15:14:37.947Z,69.58
2019-03-23T15:17:09.041Z,69.59
2019-03-23T15:19:40.768Z,70.01
2019-03-23T15:22:11.814Z,70.02
2019-03-23T15:24:42.800Z,70.17
2019-03-23T15:27:14.179Z,69.58
2019-03-23T15:29:45.555Z,70.33
2019-03-23T15:32:18.080Z,70.39
2019-03-23T15:34:49.255Z,70.47
2019-03-23T15:37:20.696Z,70.04
2019-03-23T15:39:51.684Z,70.58
2019-03-23T15:42:25.014Z,71.38
2019-03-23T15:44:55.527Z,71.27
2019-03-23T15:47:26.620Z,71.31
2019-03-23T15:49:59.179Z,71.38
2019-03-23T15:52:30.219Z,71.13
2019-03-23T15:55:03.135Z,71.54
2019-03-23T15:57:33.910Z,70.95
2019-03-23T16:00:05.864Z,72.14
2019-03-23T16:02:36.851Z,73.12
2019-03-23T16:05:08.519Z,72.78
2019-03-23T16:07:39.951Z,73.03
2019-03-23T16:10:11.636Z,73.30
2019-03-23T16:12:42.634Z,73.80
2019-03-23T16:15:14.049Z,73.33
2019-03-23T16:17:45.051Z,73.67
2019-03-23T16:20:17.224Z,74.06
2019-03-23T16:22:48.273Z,74.44
2019-03-23T16:25:19.275Z,74.22
2019-03-23T16:27:50.268Z,74.51
2019-03-23T16:30:30.399Z,74.19
2019-03-23T16:33:01.856Z,74.54
2019-03-23T16:35:33.363Z,74.46
2019-03-23T16:38:04.819Z,74.34
2019-03-23T16:40:36.937Z,74.24
2019-03-23T16:43:08.024Z,73.63
2019-03-23T16:45:39.477Z,74.21
2019-03-23T16:48:10.587Z,74.08
2019-03-23T16:50:42.775Z,74.58
2019-03-23T16:53:14.214Z,74.46
2019-03-23T16:55:45.229Z,74.40
2019-03-23T16:58:17.866Z,74.13
2019-03-23T17:00:49.030Z,74.51
2019-03-23T17:03:21.437Z,74.99
2019-03-23T17:05:52.428Z,75.16
2019-03-23T17:08:23.807Z,75.85
2019-03-23T17:10:57.250Z,75.62
2019-03-23T17:13:28.639Z,76.06
2019-03-23T17:16:00.173Z,76.93
2019-03-23T17:18:31.491Z,76.97
2019-03-23T17:21:02.625Z,77.59
2019-03-23T17:23:34.096Z,77.44
2019-03-23T17:26:05.539Z,77.96
2019-03-23T17:28:36.922Z,78.02
2019-03-23T17:31:08.251Z,78.47
2019-03-23T17:33:39.553Z,78.64
2019-03-23T17:36:10.568Z,79.05
2019-03-23T17:38:41.612Z,79.32
2019-03-23T17:41:12.597Z,79.36
2019-03-23T17:43:43.671Z,79.81
2019-03-23T17:46:14.872Z,79.72
2019-03-23T17:48:46.269Z,80.13
2019-03-23T17:51:18.356Z,80.42
2019-03-23T17:53:58.307Z,80.60
2019-03-23T17:56:25.060Z,80.77
2019-03-23T17:58:56.213Z,81.03
2019-03-23T18:01:27.744Z,81.08
2019-03-23T18:03:59.068Z,81.40
2019-03-23T18:06:30.153Z,81.38
2019-03-23T18:09:01.158Z,81.28
2019-03-23T18:11:32.252Z,81.68
2019-03-23T18:14:03.641Z,81.72
2019-03-23T18:16:34.663Z,82.18
2019-03-23T18:19:05.667Z,82.41
2019-03-23T18:21:37.849Z,82.06
2019-03-23T18:24:08.963Z,82.27
2019-03-23T18:26:41.702Z,82.59
2019-03-23T18:29:12.700Z,82.83
2019-03-23T18:31:43.730Z,82.98
2019-03-23T18:34:15.038Z,83.51
2019-03-23T18:36:46.235Z,84.03
2019-03-23T18:39:17.686Z,84.77
2019-03-23T18:41:48.673Z,85.18
2019-03-23T18:44:19.680Z,85.67
2019-03-23T18:46:50.708Z,85.75
2019-03-23T18:49:21.700Z,86.07
2019-03-23T18:51:52.868Z,86.43
2019-03-23T18:54:23.907Z,86.34
2019-03-23T18:56:55.184Z,87.11
2019-03-23T18:59:27.207Z,87.31
2019-03-23T19:01:58.437Z,87.62
2019-03-23T19:04:31.006Z,87.11
2019-03-23T19:07:04.157Z,87.28
2019-03-23T19:09:35.227Z,87.58
2019-03-23T19:12:06.633Z,87.51
2019-03-23T19:14:37.670Z,87.56
2019-03-23T19:17:08.697Z,87.25
2019-03-23T19:19:39.728Z,87.89
2019-03-23T19:22:11.627Z,87.86
2019-03-23T19:24:42.741Z,87.94
2019-03-23T19:27:14.800Z,87.68
2019-03-23T19:29:45.916Z,88.03
2019-03-23T19:32:16.970Z,87.73
2019-03-23T19:34:47.999Z,87.85
2019-03-23T19:37:22.303Z,88.12
2019-03-23T19:39:53.499Z,87.79
2019-03-23T19:42:24.492Z,87.10
2019-03-23T19:44:55.641Z,86.41
2019-03-23T19:47:26.728Z,87.19
2019-03-23T19:49:57.716Z,86.99
2019-03-23T19:52:28.752Z,87.07
2019-03-23T19:55:00.271Z,87.14
2019-03-23T19:57:31.279Z,87.03
2019-03-23T20:00:02.446Z,86.56
2019-03-23T20:02:34.439Z,85.24
2019-03-23T20:05:26.179Z,84.85
2019-03-23T20:07:57.907Z,83.87
2019-03-23T20:10:32.299Z,83.29
2019-03-23T20:13:04.271Z,82.53
2019-03-23T20:15:35.445Z,83.04
2019-03-23T20:18:06.581Z,82.60
2019-03-23T20:20:37.738Z,82.29
2019-03-23T20:23:08.855Z,82.91
2019-03-23T20:25:40.011Z,83.21
2019-03-23T20:28:11.431Z,83.42
2019-03-23T20:30:42.475Z,83.83
2019-03-23T20:33:19.305Z,83.52
2019-03-23T20:35:46.352Z,82.89
2019-03-23T20:38:17.601Z,83.33
2019-03-23T20:40:48.627Z,83.86
2019-03-23T20:43:20.441Z,83.14
2019-03-23T20:45:51.782Z,82.68
2019-03-23T20:48:23.739Z,82.29
2019-03-23T20:50:56.890Z,82.69
2019-03-23T20:53:28.009Z,82.51
2019-03-23T20:55:59.473Z,82.48
2019-03-23T20:58:30.697Z,83.03
2019-03-23T21:01:01.683Z,82.42
2019-03-23T21:03:34.511Z,83.02
2019-03-23T21:06:05.602Z,83.19
2019-03-23T21:08:36.572Z,82.86
2019-03-23T21:11:07.606Z,82.94
2019-03-23T21:13:38.996Z,82.87
2019-03-23T21:16:10.094Z,82.82
2019-03-23T21:18:41.166Z,82.52
2019-03-23T21:21:12.846Z,82.57
2019-03-23T21:23:43.821Z,82.29
2019-03-23T21:26:16.452Z,82.43
2019-03-23T21:28:47.447Z,82.25
2019-03-23T21:31:19.003Z,82.50
2019-03-23T21:33:50.092Z,82.06
2019-03-23T21:36:21.796Z,81.82
2019-03-23T21:38:53.721Z,81.29
2019-03-23T21:41:26.420Z,81.95
2019-03-23T21:43:59.231Z,82.19
2019-03-23T21:46:30.213Z,82.61
2019-03-23T21:49:01.591Z,81.25
2019-03-23T21:51:32.571Z,81.37
2019-03-23T21:54:03.547Z,81.38
2019-03-23T21:56:34.971Z,80.38
2019-03-23T21:59:05.946Z,81.36
2019-03-23T22:01:37.322Z,81.48
2019-03-23T22:04:10.526Z,80.75
2019-03-23T22:06:41.507Z,79.96
2019-03-23T22:09:12.486Z,78.75
2019-03-23T22:11:45.935Z,78.92
2019-03-23T22:14:16.987Z,78.89
2019-03-23T22:16:47.980Z,79.32
2019-03-23T22:19:19.042Z,79.96
2019-03-23T22:21:50.481Z,78.58
2019-03-23T22:24:21.482Z,79.54
2019-03-23T22:26:52.931Z,78.45
2019-03-23T22:29:23.907Z,79.05
2019-03-23T22:31:55.354Z,79.14
2019-03-23T22:34:26.375Z,77.76
2019-03-23T22:36:57.351Z,78.58
2019-03-23T22:39:28.325Z,77.57
2019-03-23T22:41:59.376Z,77.08
2019-03-23T22:44:30.449Z,76.88
2019-03-23T22:47:01.422Z,76.74
2019-03-23T22:49:32.437Z,75.19
2019-03-23T22:52:03.404Z,75.70
2019-03-23T22:54:34.765Z,75.61
2019-03-23T22:57:05.802Z,75.74
2019-03-23T22:59:36.779Z,75.20
2019-03-23T23:02:07.755Z,74.82
2019-03-23T23:04:38.781Z,73.79
2019-03-23T23:07:09.757Z,72.88
2019-03-23T23:09:40.730Z,72.87
2019-03-23T23:12:11.756Z,73.21
2019-03-23T23:14:42.729Z,74.66
2019-03-23T23:17:13.710Z,74.93
2019-03-23T23:19:44.805Z,74.61
2019-03-23T23:22:16.157Z,74.12
2019-03-23T23:24:47.134Z,74.03
2019-03-23T23:27:18.156Z,73.55
2019-03-23T23:29:49.454Z,73.20
2019-03-23T23:32:20.421Z,73.24
2019-03-23T23:34:51.438Z,72.19
2019-03-23T23:37:22.408Z,72.27
2019-03-23T23:39:53.495Z,71.77
2019-03-23T23:42:24.904Z,71.86
2019-03-23T23:44:55.871Z,72.15
2019-03-23T23:47:26.893Z,72.48
2019-03-23T23:49:58.245Z,75.07
2019-03-23T23:52:29.694Z,74.19
2019-03-23T23:55:00.727Z,74.58
2019-03-23T23:57:32.183Z,75.23
